Time;durP1;ratioP1;P1;durP2;ratioP2;P2;SDS_P1;SDS_P2;PMS_P1;PMS_P2;Temp;Humidity;BMP_temperature;BMP_pressure;BME280_temperature;BME280_humidity;BME280_pressure;Samples;Min_cycle;Max_cycle;Signal;HPM_P1;HPM_P2
2022/04/03 00:00:10;;;;;;;7.70;3.83;;;;;;;12.25;38.20;100412.47;5070944;28;20044;-77
2022/04/03 00:02:36;;;;;;;5.18;2.72;;;;;;;12.37;38.28;100429.69;5069841;28;20098;-77
2022/04/03 00:05:04;;;;;;;9.87;3.30;;;;;;;12.57;38.15;100454.69;5071058;28;20568;-77
2022/04/03 00:07:32;;;;;;;5.47;3.40;;;;;;;12.49;38.30;100441.34;5073030;28;20072;-77
2022/04/03 00:10:00;;;;;;;8.10;3.50;;;;;;;12.70;38.47;100466.31;5071060;28;20080;-76
2022/04/03 00:12:27;;;;;;;7.33;3.80;;;;;;;12.53;38.56;100450.81;5069076;28;20040;-78
2022/04/03 00:14:54;;;;;;;6.07;3.40;;;;;;;12.38;38.46;100425.78;5067210;28;20156;-77
2022/04/03 00:17:21;;;;;;;8.20;4.57;;;;;;;12.38;38.05;100431.38;5068778;28;20073;-77
2022/04/03 00:19:48;;;;;;;5.93;3.57;;;;;;;12.49;37.83;100458.13;5069593;28;20516;-78
2022/04/03 00:22:15;;;;;;;9.53;3.33;;;;;;;12.32;37.89;100433.38;5071497;28;20135;-78
2022/04/03 00:24:43;;;;;;;5.10;2.17;;;;;;;12.39;37.83;100463.84;5070242;28;20094;-78
2022/04/03 00:27:10;;;;;;;5.97;2.23;;;;;;;12.00;37.64;100422.78;5056214;28;20554;-75
2022/04/03 00:29:37;;;;;;;3.67;1.83;;;;;;;11.99;37.57;100423.88;5073591;28;20132;-77
2022/04/03 00:32:04;;;;;;;6.70;3.60;;;;;;;12.18;37.22;100445.56;5068721;28;20135;-76
2022/04/03 00:34:31;;;;;;;7.50;2.70;;;;;;;12.01;37.71;100444.03;5076839;28;20087;-76
2022/04/03 00:36:58;;;;;;;8.07;3.37;;;;;;;12.21;37.41;100467.38;5072749;28;20136;-76
2022/04/03 00:39:25;;;;;;;3.47;2.33;;;;;;;12.03;37.32;100430.59;5072008;28;20083;-76
2022/04/03 00:41:52;;;;;;;4.73;1.73;;;;;;;11.96;37.16;100430.06;5071396;28;20131;-77
2022/04/03 00:44:19;;;;;;;4.83;2.30;;;;;;;11.85;37.00;100420.09;5069427;28;20053;-77
2022/04/03 00:46:47;;;;;;;3.70;1.87;;;;;;;11.77;36.78;100413.13;5071374;28;20087;-77
2022/04/03 00:49:14;;;;;;;4.87;2.50;;;;;;;12.02;36.46;100445.69;5072039;28;20424;-77
2022/04/03 00:51:41;;;;;;;7.90;2.70;;;;;;;12.16;36.67;100461.81;5067909;28;20135;-77
2022/04/03 00:54:08;;;;;;;2.70;1.53;;;;;;;12.16;36.39;100459.84;5053308;28;20088;-77
2022/04/03 00:56:36;;;;;;;4.60;1.63;;;;;;;11.99;36.35;100437.88;5053859;28;20102;-77
2022/04/03 00:59:03;;;;;;;7.37;3.30;;;;;;;11.82;36.24;100417.84;5055255;28;20088;-77
2022/04/03 01:01:29;;;;;;;2.97;1.87;;;;;;;12.09;36.08;100449.00;5062571;28;20044;-77
2022/04/03 01:03:56;;;;;;;4.93;2.17;;;;;;;11.91;35.96;100426.50;5068634;28;20099;-77
2022/04/03 01:06:23;;;;;;;4.40;2.80;;;;;;;11.93;35.92;100422.28;5068587;28;20131;-78
2022/04/03 01:08:50;;;;;;;1.93;1.23;;;;;;;11.99;35.75;100437.03;5068133;28;20473;-77
2022/04/03 01:11:21;;;;;;;3.07;1.50;;;;;;;12.00;35.72;100431.19;5065555;28;20147;-77
2022/04/03 01:13:50;;;;;;;6.53;2.43;;;;;;;12.09;35.29;100440.59;5065164;28;20087;-77
2022/04/03 01:16:18;;;;;;;4.50;2.20;;;;;;;11.97;35.35;100423.38;5060668;28;20132;-77
2022/04/03 01:18:46;;;;;;;3.93;2.33;;;;;;;11.98;34.95;100413.00;5064924;28;20780;-77
2022/04/03 01:21:13;;;;;;;5.13;1.97;;;;;;;12.18;34.47;100449.19;5071352;28;20072;-77
2022/04/03 01:23:40;;;;;;;3.87;1.93;;;;;;;12.07;34.32;100434.47;5071413;28;20131;-76
2022/04/03 01:26:07;;;;;;;3.33;1.80;;;;;;;12.22;34.09;100438.25;5061736;28;20053;-78
2022/04/03 01:28:34;;;;;;;4.33;1.80;;;;;;;12.18;33.71;100439.97;5051116;28;20059;-77
2022/04/03 01:31:01;;;;;;;0.73;0.73;;;;;;;12.18;33.62;100440.81;5069470;28;20141;-76
2022/04/03 01:33:29;;;;;;;2.30;1.40;;;;;;;12.07;33.13;100420.47;5056419;28;20103;-76
2022/04/03 01:35:56;;;;;;;4.23;1.47;;;;;;;12.03;33.02;100405.41;5062707;28;20076;-76
2022/04/03 01:38:22;;;;;;;4.33;2.37;;;;;;;12.34;32.97;100441.47;5070628;28;20445;-76
2022/04/03 01:40:49;;;;;;;3.97;1.83;;;;;;;12.19;32.72;100406.06;5071507;28;20100;-76
2022/04/03 01:43:16;;;;;;;3.27;1.93;;;;;;;12.24;32.43;100414.44;5071530;28;20139;-76
2022/04/03 01:45:43;;;;;;;2.53;1.10;;;;;;;12.29;32.30;100419.13;5068683;28;20637;-77
2022/04/03 01:48:11;;;;;;;6.43;1.67;;;;;;;12.39;32.38;100424.63;5061836;28;20076;-76
2022/04/03 01:50:38;;;;;;;3.07;1.67;;;;;;;12.36;31.83;100427.19;5069082;28;20131;-77
2022/04/03 01:53:05;;;;;;;1.40;0.77;;;;;;;12.57;32.08;100454.69;5073096;28;20147;-77
2022/04/03 01:55:32;;;;;;;1.33;1.17;;;;;;;12.30;31.57;100418.81;5076540;28;20146;-76
2022/04/03 01:58:00;;;;;;;2.97;1.20;;;;;;;12.32;31.88;100421.34;5079748;28;20201;-77
2022/04/03 02:00:27;;;;;;;4.33;1.67;;;;;;;12.30;31.72;100398.41;5069677;28;20049;-77
2022/04/03 02:02:54;;;;;;;3.60;1.60;;;;;;;12.36;31.69;100397.22;5065620;28;20136;-77
2022/04/03 02:05:22;;;;;;;1.33;1.23;;;;;;;12.61;31.96;100410.09;5069662;28;20106;-77
2022/04/03 02:07:49;;;;;;;3.70;1.80;;;;;;;12.47;31.89;100386.75;5077705;28;20138;-77
2022/04/03 02:10:16;;;;;;;4.33;1.50;;;;;;;12.81;31.87;100437.06;5072981;28;20072;-76
2022/04/03 02:12:43;;;;;;;4.87;1.83;;;;;;;12.85;32.09;100418.50;5070202;28;20074;-75
2022/04/03 02:15:11;;;;;;;9.77;1.83;;;;;;;12.76;31.69;100406.31;5072791;28;20473;-77
2022/04/03 02:17:41;;;;;;;5.70;1.70;;;;;;;12.79;32.27;100411.31;5066551;28;20073;-77
2022/04/03 02:20:09;;;;;;;4.22;1.90;;;;;;;12.86;32.01;100428.59;5067094;28;20115;-77
2022/04/03 02:22:37;;;;;;;2.93;1.60;;;;;;;12.74;32.12;100408.56;5067219;28;20103;-77
2022/04/03 02:25:09;;;;;;;2.20;1.53;;;;;;;12.54;32.40;100385.25;5072888;28;20114;-77
2022/04/03 02:27:37;;;;;;;4.23;2.60;;;;;;;12.56;31.71;100397.00;5074407;28;20045;-77
2022/04/03 02:30:08;;;;;;;2.93;1.80;;;;;;;12.71;32.14;100403.53;5073892;28;20087;-76
2022/04/03 02:32:36;;;;;;;4.77;1.83;;;;;;;12.73;32.24;100409.69;5072520;28;20056;-77
2022/04/03 02:35:06;;;;;;;4.03;1.90;;;;;;;12.49;32.09;100373.28;5068646;28;20123;-76
2022/04/03 02:37:34;;;;;;;5.78;2.17;;;;;;;12.67;32.25;100414.53;5074537;28;20040;-77
2022/04/03 02:40:03;;;;;;;3.90;1.70;;;;;;;12.54;32.06;100379.63;5072438;28;20091;-77
2022/04/03 02:42:31;;;;;;;3.20;2.00;;;;;;;12.39;32.40;100377.03;5073925;28;20175;-76
2022/04/03 02:44:58;;;;;;;6.83;2.47;;;;;;;12.55;32.54;100422.53;5074318;28;20569;-76
2022/04/03 02:47:25;;;;;;;2.93;1.63;;;;;;;12.28;32.32;100379.09;5062431;28;20167;-77
2022/04/03 02:49:52;;;;;;;8.83;2.33;;;;;;;12.21;32.40;100378.63;5070302;28;20088;-77
2022/04/03 02:52:20;;;;;;;6.10;2.00;;;;;;;12.60;32.03;100418.81;5084243;28;20221;-77
2022/04/03 02:54:48;;;;;;;3.30;1.47;;;;;;;12.61;32.11;100414.88;5068905;28;20132;-77
2022/04/03 02:57:16;;;;;;;4.07;2.13;;;;;;;12.64;32.16;100409.50;5072951;28;20527;-76
2022/04/03 02:59:46;;;;;;;4.00;1.70;;;;;;;12.59;32.19;100411.56;5064397;28;20072;-76
2022/04/03 03:02:13;;;;;;;4.53;2.20;;;;;;;12.37;32.03;100368.06;5070311;28;20087;-76
2022/04/03 03:04:40;;;;;;;4.30;2.10;;;;;;;12.31;32.28;100358.91;5073120;28;20095;-76
2022/04/03 03:07:09;;;;;;;2.20;1.30;;;;;;;12.56;32.29;100398.97;5070169;28;20083;-76
2022/04/03 03:09:36;;;;;;;3.50;1.73;;;;;;;12.09;32.25;100336.19;5075192;28;20504;-76
2022/04/03 03:12:05;;;;;;;4.70;1.60;;;;;;;12.26;32.13;100388.94;5073732;28;20489;-76
2022/04/03 03:14:32;;;;;;;4.10;1.50;;;;;;;12.37;32.07;100410.09;5066846;28;20132;-76
2022/04/03 03:17:01;;;;;;;3.63;1.40;;;;;;;12.41;32.03;100399.97;5072412;28;20103;-76
2022/04/03 03:19:28;;;;;;;2.70;1.35;;;;;;;12.24;32.18;100379.97;5073794;28;20049;-76
2022/04/03 03:21:55;;;;;;;3.40;1.97;;;;;;;12.30;32.26;100401.19;5074468;28;20479;-76
2022/04/03 03:24:21;;;;;;;3.53;1.30;;;;;;;12.26;32.01;100380.53;5070161;28;20073;-76
2022/04/03 03:26:48;;;;;;;3.53;1.40;;;;;;;12.37;31.87;100382.09;5072992;28;20053;-76
2022/04/03 03:29:16;;;;;;;1.97;1.00;;;;;;;12.02;32.20;100353.34;5069749;28;20120;-76
2022/04/03 03:31:42;;;;;;;2.73;1.20;;;;;;;12.04;32.11;100384.66;5072893;28;20127;-76
2022/04/03 03:34:09;;;;;;;6.23;1.57;;;;;;;12.05;32.09;100389.13;5072503;28;20048;-76
2022/04/03 03:36:36;;;;;;;3.53;1.47;;;;;;;12.23;31.88;100403.50;5071877;28;20048;-77
2022/04/03 03:39:03;;;;;;;4.17;1.43;;;;;;;12.08;32.12;100382.94;5056141;28;20045;-77
2022/04/03 03:41:30;;;;;;;2.23;1.10;;;;;;;12.09;31.93;100376.22;5075351;28;20087;-77
2022/04/03 03:43:57;;;;;;;3.03;1.47;;;;;;;12.02;32.07;100366.50;5072618;28;20128;-77
2022/04/03 03:46:24;;;;;;;1.70;1.27;;;;;;;12.05;32.13;100368.72;5059230;28;20049;-77
2022/04/03 03:48:51;;;;;;;8.60;1.70;;;;;;;12.27;32.40;100410.19;5069659;28;20071;-77
2022/04/03 03:51:18;;;;;;;2.20;1.57;;;;;;;12.03;32.51;100385.81;5062929;28;20135;-77
2022/04/03 03:53:45;;;;;;;3.07;1.47;;;;;;;12.23;32.54;100423.13;5070736;28;20076;-77
2022/04/03 03:56:12;;;;;;;2.90;1.70;;;;;;;12.04;32.84;100400.63;5066462;28;20102;-77
2022/04/03 03:58:39;;;;;;;5.20;1.73;;;;;;;12.03;33.53;100405.41;5072425;28;20075;-77
2022/04/03 04:01:06;;;;;;;4.13;1.70;;;;;;;11.98;33.43;100397.03;5069837;28;20076;-77
2022/04/03 04:03:33;;;;;;;2.20;1.13;;;;;;;12.00;33.18;100400.38;5074509;28;20058;-77
2022/04/03 04:06:00;;;;;;;1.73;1.17;;;;;;;11.81;32.96;100375.03;5078485;28;20110;-77
2022/04/03 04:08:26;;;;;;;2.50;1.30;;;;;;;12.07;33.04;100417.69;5064037;28;20086;-77
2022/04/03 04:10:53;;;;;;;4.07;1.53;;;;;;;11.85;33.09;100397.72;5072475;28;20075;-77
2022/04/03 04:13:20;;;;;;;2.47;1.40;;;;;;;11.97;33.52;100420.56;5068491;28;20131;-77
2022/04/03 04:15:47;;;;;;;2.47;1.10;;;;;;;11.87;33.21;100400.22;5070151;28;20135;-77
2022/04/03 04:18:14;;;;;;;2.33;1.73;;;;;;;11.76;33.52;100385.44;5066781;28;20041;-77
2022/04/03 04:20:42;;;;;;;2.50;1.40;;;;;;;11.93;33.17;100413.88;5066179;28;20055;-78
2022/04/03 04:23:09;;;;;;;1.53;1.07;;;;;;;11.79;32.86;100398.84;5067820;28;20568;-77
2022/04/03 04:25:36;;;;;;;2.20;1.03;;;;;;;11.57;33.06;100369.38;5069044;28;20075;-77
2022/04/03 04:28:03;;;;;;;2.90;1.20;;;;;;;11.61;33.16;100381.63;5071216;28;20140;-77
2022/04/03 04:30:30;;;;;;;1.60;0.80;;;;;;;11.24;33.16;100331.88;5063424;28;20135;-77
2022/04/03 04:32:57;;;;;;;2.20;1.47;;;;;;;11.77;33.05;100410.34;5070825;28;20135;-77
2022/04/03 04:35:24;;;;;;;2.30;1.10;;;;;;;11.70;33.01;100398.66;5069817;28;20136;-78
2022/04/03 04:37:51;;;;;;;2.03;1.00;;;;;;;11.83;32.97;100411.16;5068998;28;20079;-77
2022/04/03 04:40:18;;;;;;;1.50;0.97;;;;;;;11.42;32.91;100355.53;5059931;28;20083;-77
2022/04/03 04:42:45;;;;;;;1.83;0.90;;;;;;;11.59;33.07;100397.06;5088175;28;20072;-77
2022/04/03 04:45:11;;;;;;;3.80;1.27;;;;;;;11.78;32.71;100422.34;5069279;28;20053;-76
2022/04/03 04:47:43;;;;;;;2.03;1.17;;;;;;;11.54;32.97;100380.31;5071053;28;20475;-77
2022/04/03 04:50:14;;;;;;;2.67;1.40;;;;;;;11.63;32.91;100386.97;5072025;28;20076;-78
2022/04/03 04:52:42;;;;;;;2.10;1.50;;;;;;;11.63;32.96;100398.97;5072074;28;20529;-77
2022/04/03 04:55:09;;;;;;;2.00;0.90;;;;;;;11.52;32.83;100386.22;5063989;28;20087;-77
2022/04/03 04:57:37;;;;;;;2.97;0.93;;;;;;;11.40;33.02;100374.53;5067884;28;20078;-77
2022/04/03 05:00:09;;;;;;;1.40;0.80;;;;;;;11.59;32.92;100423.06;5070115;28;20083;-77
2022/04/03 05:02:36;;;;;;;1.23;0.80;;;;;;;11.41;32.81;100398.56;5058682;28;20052;-77
2022/04/03 05:05:05;;;;;;;2.67;0.83;;;;;;;11.46;32.97;100401.34;5066300;28;20087;-77
2022/04/03 05:07:34;;;;;;;1.00;0.70;;;;;;;11.44;32.96;100411.97;5063825;28;20053;-77
2022/04/03 05:10:04;;;;;;;;;;;;;;;11.24;33.65;100423.28;5064408;28;20050;-76
2022/04/03 05:12:36;;;;;;;1.83;1.23;;;;;;;11.26;33.60;100430.25;5066529;28;19999;-77
2022/04/03 05:15:03;;;;;;;4.00;1.37;;;;;;;11.13;33.55;100416.91;5067077;28;20095;-76
2022/04/03 05:17:30;;;;;;;2.03;1.23;;;;;;;11.31;33.39;100424.63;5068198;28;20056;-77
2022/04/03 05:19:57;;;;;;;1.83;0.80;;;;;;;11.48;33.13;100429.84;5063287;28;20471;-77
2022/04/03 05:22:26;;;;;;;3.90;1.30;;;;;;;11.51;33.09;100434.84;5068373;28;20140;-77
2022/04/03 05:24:53;;;;;;;1.47;0.90;;;;;;;11.28;33.22;100408.47;5064385;28;20524;-77
2022/04/03 05:27:20;;;;;;;3.83;1.70;;;;;;;11.32;33.17;100408.72;5066796;28;20079;-77
2022/04/03 05:29:48;;;;;;;1.83;0.93;;;;;;;11.50;33.36;100436.00;5061361;28;20129;-76
2022/04/03 05:32:25;;;;;;;1.93;1.23;;;;;;;11.40;33.50;100424.88;5071431;28;20076;-76
2022/04/03 05:34:53;;;;;;;1.70;1.27;;;;;;;11.37;33.41;100426.28;5074063;28;20075;-77
2022/04/03 05:37:20;;;;;;;1.90;0.93;;;;;;;11.30;33.17;100405.38;5070754;28;20087;-76
2022/04/03 05:39:47;;;;;;;3.37;0.93;;;;;;;11.31;33.27;100410.66;5065212;28;20262;-77
2022/04/03 05:42:14;;;;;;;2.40;1.53;;;;;;;11.43;33.32;100421.50;5066256;28;20132;-77
2022/04/03 05:44:41;;;;;;;1.90;0.63;;;;;;;11.27;33.32;100397.56;5070973;28;20131;-77
2022/04/03 05:47:08;;;;;;;2.83;0.90;;;;;;;11.32;33.47;100408.72;5068294;28;20549;-77
2022/04/03 05:49:35;;;;;;;6.07;1.07;;;;;;;11.18;33.36;100413.25;5062828;28;20049;-77
2022/04/03 05:52:02;;;;;;;1.87;0.90;;;;;;;11.20;33.55;100411.00;5066898;28;20079;-76
2022/04/03 05:54:29;;;;;;;3.07;0.80;;;;;;;11.17;33.75;100420.81;5060068;28;20147;-76
2022/04/03 05:56:56;;;;;;;3.13;1.23;;;;;;;11.02;33.63;100410.53;5067314;28;20080;-77
2022/04/03 05:59:23;;;;;;;2.17;0.93;;;;;;;10.84;33.73;100383.28;5068650;28;20098;-77
2022/04/03 06:01:50;;;;;;;5.80;1.17;;;;;;;11.08;33.68;100412.19;5064468;28;20049;-77
2022/04/03 06:04:17;;;;;;;1.47;1.00;;;;;;;11.09;33.76;100421.41;5064090;28;20049;-77
2022/04/03 06:06:44;;;;;;;2.13;1.10;;;;;;;11.16;33.91;100435.91;5081319;28;20099;-77
2022/04/03 06:09:11;;;;;;;2.10;0.93;;;;;;;11.19;33.94;100440.94;5064938;28;20540;-77
2022/04/03 06:11:38;;;;;;;1.20;0.80;;;;;;;11.22;33.82;100453.50;5069056;28;20120;-77
2022/04/03 06:14:05;;;;;;;3.40;1.10;;;;;;;11.11;33.74;100445.16;5068219;28;20079;-77
2022/04/03 06:16:32;;;;;;;3.70;1.23;;;;;;;11.06;33.99;100439.59;5066497;28;20455;-77
2022/04/03 06:19:00;;;;;;;1.00;0.80;;;;;;;11.02;33.71;100434.88;5055918;28;20062;-77
2022/04/03 06:21:26;;;;;;;1.40;0.90;;;;;;;11.02;33.76;100451.63;5064732;28;20084;-77
2022/04/03 06:23:53;;;;;;;2.17;0.73;;;;;;;10.98;33.90;100440.19;5066347;28;20076;-77
2022/04/03 06:26:20;;;;;;;2.63;0.83;;;;;;;11.05;33.97;100457.47;5064397;28;20053;-78
2022/04/03 06:28:47;;;;;;;2.63;1.70;;;;;;;10.69;33.80;100395.31;5065796;28;20081;-78
2022/04/03 06:31:14;;;;;;;4.10;2.00;;;;;;;11.12;33.69;100466.41;5065627;28;20478;-78
2022/04/03 06:33:41;;;;;;;6.30;2.93;;;;;;;11.19;33.74;100468.03;5065704;28;20106;-78
2022/04/03 06:36:08;;;;;;;3.80;2.27;;;;;;;11.04;33.80;100441.84;5061998;28;20080;-78
2022/04/03 06:38:35;;;;;;;3.83;2.57;;;;;;;11.06;33.63;100447.97;5063224;28;20135;-78
2022/04/03 06:41:02;;;;;;;4.53;1.97;;;;;;;11.13;33.82;100450.47;5064983;28;20102;-76
2022/04/03 06:43:30;;;;;;;3.07;1.07;;;;;;;11.07;33.70;100437.63;5066817;28;20053;-77
2022/04/03 06:45:57;;;;;;;2.53;1.40;;;;;;;11.21;33.91;100443.41;5060284;28;20144;-76
2022/04/03 06:48:27;;;;;;;2.43;1.30;;;;;;;11.45;33.80;100460.34;5065990;28;20056;-78
2022/04/03 06:50:55;;;;;;;2.35;1.15;;;;;;;11.51;33.73;100464.78;5065665;28;20053;-78
2022/04/03 06:53:22;;;;;;;1.50;1.10;;;;;;;11.62;33.81;100447.66;5058679;28;20083;-80
2022/04/03 06:55:50;;;;;;;3.53;1.17;;;;;;;11.78;33.36;100447.53;5072155;28;20072;-80
2022/04/03 06:58:17;;;;;;;2.50;1.20;;;;;;;12.08;33.36;100468.88;5063566;28;20056;-78
2022/04/03 07:00:49;;;;;;;2.57;0.97;;;;;;;11.70;33.18;100389.44;5067234;28;20056;-79
2022/04/03 07:03:17;;;;;;;0.83;0.70;;;;;;;12.16;32.88;100442.22;5066405;28;20109;-76
2022/04/03 07:05:44;;;;;;;1.73;0.90;;;;;;;12.58;32.85;100463.94;5060134;28;20095;-76
2022/04/03 07:08:11;;;;;;;3.40;1.03;;;;;;;12.53;32.80;100425.59;5065064;28;20091;-76
2022/04/03 07:10:37;;;;;;;2.77;1.20;;;;;;;12.99;32.59;100460.66;5067410;28;20087;-74
2022/04/03 07:13:05;;;;;;;2.27;1.00;;;;;;;13.23;32.27;100463.44;5065180;28;20508;-73
2022/04/03 07:15:31;;;;;;;1.83;1.13;;;;;;;13.56;32.18;100474.81;5071618;28;20139;-74
2022/04/03 07:18:00;;;;;;;2.43;1.03;;;;;;;13.82;31.70;100478.09;5067771;28;20052;-73
2022/04/03 07:20:27;;;;;;;2.63;1.03;;;;;;;13.90;31.75;100440.88;5074054;28;20048;-74
2022/04/03 07:22:55;;;;;;;1.47;1.17;;;;;;;14.20;31.59;100445.16;5072085;28;20573;-74
2022/04/03 07:25:22;;;;;;;1.90;0.97;;;;;;;14.72;31.40;100474.03;5056745;28;20576;-74
2022/04/03 07:27:49;;;;;;;1.90;1.17;;;;;;;15.15;31.10;100476.56;5068722;28;20052;-74
2022/04/03 07:30:19;;;;;;;1.90;1.00;;;;;;;15.45;31.04;100477.84;5071143;28;20127;-73
2022/04/03 07:32:46;;;;;;;2.50;1.10;;;;;;;15.82;30.33;100478.75;5075196;28;20094;-73
2022/04/03 07:35:13;;;;;;;7.03;2.30;;;;;;;16.15;30.04;100490.63;5063351;28;20068;-76
2022/04/03 07:37:40;;;;;;;3.77;2.17;;;;;;;16.30;29.87;100486.56;5066703;28;20452;-73
2022/04/03 07:40:08;;;;;;;3.83;1.77;;;;;;;16.50;29.75;100477.59;5065467;28;20068;-74
2022/04/03 07:42:36;;;;;;;2.83;1.67;;;;;;;16.52;29.23;100451.91;5061601;28;20048;-73
2022/04/03 07:45:04;;;;;;;2.10;1.10;;;;;;;16.73;29.04;100453.03;5069851;28;20056;-73
2022/04/03 07:47:32;;;;;;;7.03;2.97;;;;;;;17.08;28.67;100469.28;5073662;28;20055;-72
2022/04/03 07:49:59;;;;;;;2.30;1.27;;;;;;;17.07;28.36;100434.59;5075773;28;20408;-72
2022/04/03 07:52:26;;;;;;;1.43;0.80;;;;;;;17.40;28.21;100465.22;5071710;28;20127;-73
2022/04/03 07:54:53;;;;;;;3.37;1.27;;;;;;;17.56;28.00;100474.88;5074257;28;20126;-74
2022/04/03 07:57:20;;;;;;;6.80;3.93;;;;;;;17.59;27.86;100488.34;5067522;28;20076;-75
2022/04/03 07:59:47;;;;;;;4.80;2.33;;;;;;;17.54;27.73;100460.28;5059219;28;20075;-76
2022/04/03 08:02:14;;;;;;;4.45;2.55;;;;;;;17.81;27.50;100463.97;5072626;28;20127;-77
2022/04/03 08:04:41;;;;;;;4.57;1.25;;;;;;;17.85;26.68;100460.19;5075408;28;20059;-77
2022/04/03 08:07:08;;;;;;;4.65;0.90;;;;;;;17.71;27.03;100451.84;5067551;28;20048;-76
2022/04/03 08:09:35;;;;;;;2.33;1.10;;;;;;;17.93;26.74;100462.16;5073705;28;20079;-76
2022/04/03 08:12:02;;;;;;;1.65;1.02;;;;;;;18.16;26.08;100473.31;5064465;28;20076;-76
2022/04/03 08:14:28;;;;;;;1.95;0.85;;;;;;;18.38;26.31;100469.44;5071197;28;20132;-75
2022/04/03 08:16:55;;;;;;;0.77;0.73;;;;;;;18.27;26.31;100415.25;5078670;28;20076;-75
2022/04/03 08:19:23;;;;;;;1.77;1.02;;;;;;;18.90;25.86;100478.63;5068199;28;20126;-76
2022/04/03 08:21:49;;;;;;;4.30;0.90;;;;;;;18.97;25.58;100480.94;5070631;28;20083;-76
2022/04/03 08:24:18;;;;;;;1.67;1.13;;;;;;;18.09;24.93;100448.38;5067023;28;20056;-75
2022/04/03 08:26:45;;;;;;;0.82;0.77;;;;;;;17.47;24.62;100476.84;5066592;28;20045;-74
2022/04/03 08:29:12;;;;;;;1.27;1.10;;;;;;;16.98;25.26;100451.50;5059671;28;20169;-76
2022/04/03 08:31:39;;;;;;;2.88;1.30;;;;;;;17.61;25.70;100474.75;5060751;28;20135;-75
2022/04/03 08:34:05;;;;;;;2.67;0.90;;;;;;;18.16;25.22;100478.97;5064727;28;20045;-75
2022/04/03 08:36:52;;;;;;;29.48;13.63;;;;;;;18.59;25.02;100459.06;5065997;28;20579;-75
2022/04/03 08:39:19;;;;;;;8.95;2.83;;;;;;;18.96;24.75;100479.28;5071470;28;20082;-75
2022/04/03 08:41:46;;;;;;;1.50;1.00;;;;;;;18.26;24.18;100460.84;5072350;28;20080;-75
2022/04/03 08:44:13;;;;;;;2.33;1.30;;;;;;;18.24;24.68;100449.84;5067575;28;20080;-75
2022/04/03 08:46:48;;;;;;;1.83;1.23;;;;;;;18.18;24.61;100471.78;5069712;28;20162;-75
2022/04/03 08:49:19;;;;;;;1.42;1.17;;;;;;;18.32;24.46;100460.28;5061277;28;20072;-75
2022/04/03 08:51:47;;;;;;;1.75;1.17;;;;;;;18.89;24.47;100462.00;5068032;28;20076;-74
2022/04/03 08:54:16;;;;;;;1.30;1.00;;;;;;;19.17;23.62;100460.38;5064708;28;20079;-75
2022/04/03 08:56:43;;;;;;;2.40;1.48;;;;;;;19.20;23.69;100475.03;5071833;28;20481;-76
2022/04/03 08:59:10;;;;;;;0.63;0.63;;;;;;;18.67;23.72;100429.13;5072888;28;20094;-76
2022/04/03 09:01:37;;;;;;;0.73;0.73;;;;;;;18.45;23.33;100449.97;5073115;28;20468;-75
2022/04/03 09:04:05;;;;;;;0.50;0.50;;;;;;;18.39;23.10;100469.13;5071522;28;20518;-75
2022/04/03 09:06:32;;;;;;;1.65;0.50;;;;;;;18.27;23.61;100425.75;5063403;28;20445;-75
2022/04/03 09:08:59;;;;;;;1.90;0.93;;;;;;;18.28;23.22;100450.81;5068690;28;20101;-75
2022/04/03 09:11:29;;;;;;;3.75;1.00;;;;;;;18.03;23.02;100461.00;5060895;28;20088;-75
2022/04/03 09:13:56;;;;;;;1.25;0.85;;;;;;;17.83;23.65;100450.38;5064866;28;20492;-74
2022/04/03 09:16:39;;;;;;;2.70;0.95;;;;;;;17.93;23.67;100435.91;5068492;28;20048;-74
2022/04/03 09:19:08;;;;;;;1.17;0.82;;;;;;;18.29;23.49;100477.09;5072756;28;20079;-75
2022/04/03 09:21:35;;;;;;;1.25;0.60;;;;;;;17.65;22.78;100427.75;5072819;28;20055;-74
2022/04/03 09:24:08;;;;;;;4.13;1.60;;;;;;;17.81;23.58;100459.19;5070730;28;20076;-74
2022/04/03 09:26:36;;;;;;;0.90;0.85;;;;;;;18.15;23.53;100465.97;5065907;28;20040;-75
2022/04/03 09:29:12;;;;;;;3.58;2.10;;;;;;;18.74;22.95;100468.25;5060271;28;20085;-75
2022/04/03 09:31:40;;;;;;;1.65;1.10;;;;;;;19.19;23.16;100468.53;5051063;28;20114;-75
2022/04/03 09:34:15;;;;;;;0.80;0.80;;;;;;;19.08;22.77;100447.47;5068055;28;20056;-75
2022/04/03 09:36:42;;;;;;;1.48;0.90;;;;;;;19.21;22.72;100465.34;5052702;28;20132;-76
2022/04/03 09:39:16;;;;;;;2.00;1.00;;;;;;;19.74;22.58;100427.91;5066147;28;20061;-76
2022/04/03 09:42:08;;;;;;;1.45;1.10;;;;;;;20.65;22.25;100472.59;5069260;28;20066;-74
2022/04/03 09:44:37;;;;;;;2.65;1.38;;;;;;;21.10;22.07;100477.41;5070534;28;20079;-75
2022/04/03 09:47:13;;;;;;;2.88;1.05;;;;;;;21.53;21.86;100466.28;5068952;28;20045;-74
2022/04/03 09:49:42;;;;;;;2.90;1.35;;;;;;;22.14;21.88;100458.81;5051485;28;20045;-75
2022/04/03 09:52:12;;;;;;;3.10;1.50;;;;;;;22.52;21.30;100454.66;5069473;28;20135;-75
2022/04/03 09:54:39;;;;;;;;;;;;;;;22.68;21.38;100472.59;5062887;28;20076;-75
2022/04/03 09:57:21;;;;;;;1.77;1.25;;;;;;;22.00;20.38;100474.25;5058804;28;19959;-76
2022/04/03 09:59:53;;;;;;;2.78;1.80;;;;;;;22.20;20.65;100437.50;5057959;28;20131;-76
2022/04/03 10:02:22;;;;;;;2.47;1.52;;;;;;;22.75;20.56;100466.25;5070046;28;20135;-75
2022/04/03 10:04:50;;;;;;;2.67;1.55;;;;;;;23.09;20.61;100453.34;5052163;28;20091;-75
2022/04/03 10:07:20;;;;;;;3.00;1.52;;;;;;;23.27;20.00;100488.81;5070653;28;20493;-75
2022/04/03 10:09:48;;;;;;;1.50;1.10;;;;;;;23.29;20.11;100469.34;5071792;28;20074;-75
2022/04/03 10:12:20;;;;;;;1.65;1.20;;;;;;;23.23;20.19;100450.88;5072000;28;20091;-74
2022/04/03 10:14:51;;;;;;;2.05;1.20;;;;;;;22.76;19.92;100448.81;5071802;28;20469;-75
2022/04/03 10:17:20;;;;;;;2.25;1.33;;;;;;;21.97;19.07;100403.91;5052838;28;20505;-75
2022/04/03 10:19:48;;;;;;;1.00;0.90;;;;;;;22.02;19.87;100436.94;5072777;28;20455;-75
2022/04/03 10:22:31;;;;;;;2.58;1.50;;;;;;;22.30;19.79;100447.53;5062400;28;20084;-75
2022/04/03 10:25:04;;;;;;;1.63;1.33;;;;;;;22.55;19.59;100416.91;5054554;28;20088;-75
2022/04/03 10:27:35;;;;;;;2.53;1.27;;;;;;;23.05;19.47;100426.81;5054913;28;20441;-75
2022/04/03 10:30:04;;;;;;;2.35;1.30;;;;;;;23.09;19.42;100453.34;5056361;28;20045;-75
2022/04/03 10:32:36;;;;;;;1.50;1.13;;;;;;;23.13;19.15;100431.47;5070904;28;20083;-76
2022/04/03 10:35:08;;;;;;;2.85;1.50;;;;;;;23.43;19.41;100428.97;5064057;28;20098;-75
2022/04/03 10:37:38;;;;;;;1.73;1.38;;;;;;;23.93;19.23;100415.03;5061461;28;20504;-76
2022/04/03 10:40:09;;;;;;;3.33;1.30;;;;;;;24.49;19.19;100415.41;5075583;28;20128;-76
2022/04/03 10:42:55;;;;;;;1.45;1.23;;;;;;;24.74;19.06;100400.75;5072808;28;20052;-75
2022/04/03 10:45:31;;;;;;;2.13;1.38;;;;;;;25.34;18.62;100403.84;5074734;28;20083;-75
2022/04/03 10:48:19;;;;;;;1.88;1.20;;;;;;;25.82;19.06;100403.34;5071521;28;20585;-76
2022/04/03 10:51:00;;;;;;;1.63;1.20;;;;;;;25.86;18.58;100382.13;5067372;28;20122;-75
2022/04/03 10:53:32;;;;;;;2.35;1.25;;;;;;;26.02;18.02;100390.53;5071684;28;20472;-75
2022/04/03 10:56:07;;;;;;;2.78;1.38;;;;;;;26.16;18.11;100390.69;5069479;28;20087;-76
2022/04/03 10:58:40;;;;;;;2.35;1.48;;;;;;;25.61;17.45;100373.19;5075035;28;20114;-76
2022/04/03 11:01:11;;;;;;;3.17;1.60;;;;;;;25.84;17.42;100383.72;5063645;28;20127;-76
2022/04/03 11:03:38;;;;;;;2.17;1.70;;;;;;;25.78;17.68;100391.81;5066799;28;20087;-76
2022/04/03 11:06:24;;;;;;;2.58;1.50;;;;;;;26.31;17.59;100380.22;5075039;28;20055;-75
2022/04/03 11:09:00;;;;;;;1.33;1.23;;;;;;;27.15;16.75;100390.09;5075172;28;20075;-76
2022/04/03 11:11:37;;;;;;;5.20;1.63;;;;;;;26.99;16.40;100398.09;5072583;28;20127;-76
2022/04/03 11:14:12;;;;;;;2.20;1.60;;;;;;;25.42;16.53;100385.59;5055490;28;20394;-75
2022/04/03 11:16:53;;;;;;;2.72;1.35;;;;;;;25.18;17.35;100381.13;5054005;28;20497;-75
2022/04/03 11:19:41;;;;;;;2.33;1.25;;;;;;;24.37;16.96;100367.00;5055092;28;20139;-75
2022/04/03 11:22:16;;;;;;;3.47;1.77;;;;;;;23.57;17.57;100355.19;5057817;28;20052;-75
2022/04/03 11:24:43;;;;;;;3.22;1.83;;;;;;;24.09;17.59;100353.03;5073567;28;20144;-76
2022/04/03 11:27:12;;;;;;;2.35;1.60;;;;;;;24.69;17.28;100367.66;5073989;28;20080;-76
2022/04/03 11:29:40;;;;;;;4.60;1.73;;;;;;;24.95;17.43;100358.28;5074087;28;20052;-76
2022/04/03 11:32:09;;;;;;;1.95;1.50;;;;;;;25.57;17.36;100365.75;5073850;28;20045;-75